sensor_id;sensor_type;location;lat;lon;timestamp;temperature;humidity
27439;DHT22;14887;51.252;7.470;2023-04-01T00:02:18;6.90;99.90
27439;DHT22;14887;51.252;7.470;2023-04-01T00:04:43;6.90;99.90
27439;DHT22;14887;51.252;7.470;2023-04-01T00:07:09;6.90;99.90
27439;DHT22;14887;51.252;7.470;2023-04-01T00:09:36;6.80;99.90
27439;DHT22;14887;51.252;7.470;2023-04-01T00:12:01;6.80;99.90
27439;DHT22;14887;51.252;7.470;2023-04-01T00:14:27;6.80;99.90
27439;DHT22;14887;51.252;7.470;2023-04-01T00:16:53;6.80;99.90
27439;DHT22;14887;51.252;7.470;2023-04-01T00:19:19;6.80;99.90
27439;DHT22;14887;51.252;7.470;2023-04-01T00:21:44;6.80;99.90
27439;DHT22;14887;51.252;7.470;2023-04-01T00:24:10;6.80;99.90
27439;DHT22;14887;51.252;7.470;2023-04-01T00:26:36;6.80;99.90
27439;DHT22;14887;51.252;7.470;2023-04-01T00:29:01;6.80;99.90
27439;DHT22;14887;51.252;7.470;2023-04-01T00:31:27;6.80;99.90
27439;DHT22;14887;51.252;7.470;2023-04-01T00:33:53;6.80;99.90
27439;DHT22;14887;51.252;7.470;2023-04-01T00:36:20;6.80;99.90
27439;DHT22;14887;51.252;7.470;2023-04-01T00:38:46;6.80;99.90
27439;DHT22;14887;51.252;7.470;2023-04-01T00:41:13;6.80;99.90
27439;DHT22;14887;51.252;7.470;2023-04-01T00:43:44;6.80;99.90
27439;DHT22;14887;51.252;7.470;2023-04-01T00:46:10;6.70;99.90
27439;DHT22;14887;51.252;7.470;2023-04-01T00:48:39;6.80;99.90
27439;DHT22;14887;51.252;7.470;2023-04-01T00:51:25;6.70;99.90
27439;DHT22;14887;51.252;7.470;2023-04-01T00:53:54;6.70;99.90
27439;DHT22;14887;51.252;7.470;2023-04-01T00:56:39;6.70;99.90
27439;DHT22;14887;51.252;7.470;2023-04-01T00:59:12;6.70;99.90
27439;DHT22;14887;51.252;7.470;2023-04-01T01:01:40;6.70;99.90
27439;DHT22;14887;51.252;7.470;2023-04-01T01:04:06;6.70;99.90
27439;DHT22;14887;51.252;7.470;2023-04-01T01:06:39;6.70;99.90
27439;DHT22;14887;51.252;7.470;2023-04-01T01:11:48;6.70;99.90
27439;DHT22;14887;51.252;7.470;2023-04-01T01:17:13;6.70;99.90
27439;DHT22;14887;51.252;7.470;2023-04-01T01:20:06;6.70;99.90
27439;DHT22;14887;51.252;7.470;2023-04-01T01:34:06;6.70;99.90
27439;DHT22;14887;51.252;7.470;2023-04-01T01:36:38;6.70;99.90
27439;DHT22;14887;51.252;7.470;2023-04-01T01:39:07;6.70;99.90
27439;DHT22;14887;51.252;7.470;2023-04-01T01:41:34;6.80;99.90
27439;DHT22;14887;51.252;7.470;2023-04-01T01:44:04;6.70;99.90
27439;DHT22;14887;51.252;7.470;2023-04-01T01:46:31;6.80;99.90
27439;DHT22;14887;51.252;7.470;2023-04-01T01:48:58;6.70;99.90
27439;DHT22;14887;51.252;7.470;2023-04-01T01:51:27;6.70;99.90
27439;DHT22;14887;51.252;7.470;2023-04-01T01:53:53;6.70;99.90
27439;DHT22;14887;51.252;7.470;2023-04-01T01:56:21;6.70;99.90
27439;DHT22;14887;51.252;7.470;2023-04-01T01:58:49;6.70;99.90
27439;DHT22;14887;51.252;7.470;2023-04-01T02:01:22;6.70;99.90
27439;DHT22;14887;51.252;7.470;2023-04-01T02:03:50;6.70;99.90
27439;DHT22;14887;51.252;7.470;2023-04-01T02:06:19;6.70;99.90
27439;DHT22;14887;51.252;7.470;2023-04-01T02:08:56;6.70;99.90
27439;DHT22;14887;51.252;7.470;2023-04-01T02:11:32;6.70;99.90
27439;DHT22;14887;51.252;7.470;2023-04-01T02:16:39;6.70;99.90
27439;DHT22;14887;51.252;7.470;2023-04-01T02:19:10;6.70;99.90
27439;DHT22;14887;51.252;7.470;2023-04-01T02:21:37;6.70;99.90
27439;DHT22;14887;51.252;7.470;2023-04-01T02:24:08;6.70;99.90
27439;DHT22;14887;51.252;7.470;2023-04-01T02:26:35;6.70;99.90
27439;DHT22;14887;51.252;7.470;2023-04-01T02:29:01;6.70;99.90
27439;DHT22;14887;51.252;7.470;2023-04-01T02:31:29;6.70;99.90
27439;DHT22;14887;51.252;7.470;2023-04-01T02:33:56;6.80;99.90
27439;DHT22;14887;51.252;7.470;2023-04-01T02:36:21;6.70;99.90
27439;DHT22;14887;51.252;7.470;2023-04-01T02:38:47;6.80;99.90
27439;DHT22;14887;51.252;7.470;2023-04-01T02:41:15;6.80;99.90
27439;DHT22;14887;51.252;7.470;2023-04-01T02:43:40;6.70;99.90
27439;DHT22;14887;51.252;7.470;2023-04-01T02:46:06;6.70;99.90
27439;DHT22;14887;51.252;7.470;2023-04-01T02:48:31;6.70;99.90
27439;DHT22;14887;51.252;7.470;2023-04-01T02:50:57;6.70;99.90
27439;DHT22;14887;51.252;7.470;2023-04-01T02:53:23;6.70;99.90
27439;DHT22;14887;51.252;7.470;2023-04-01T02:55:48;6.70;99.90
27439;DHT22;14887;51.252;7.470;2023-04-01T02:58:16;6.70;99.90
27439;DHT22;14887;51.252;7.470;2023-04-01T03:00:42;6.70;99.90
27439;DHT22;14887;51.252;7.470;2023-04-01T03:03:08;6.70;99.90
27439;DHT22;14887;51.252;7.470;2023-04-01T03:05:34;6.70;99.90
27439;DHT22;14887;51.252;7.470;2023-04-01T03:08:00;6.60;99.90
27439;DHT22;14887;51.252;7.470;2023-04-01T03:10:25;6.60;99.90
27439;DHT22;14887;51.252;7.470;2023-04-01T03:12:51;6.60;99.90
27439;DHT22;14887;51.252;7.470;2023-04-01T03:15:16;6.50;99.90
27439;DHT22;14887;51.252;7.470;2023-04-01T03:17:42;6.60;99.90
27439;DHT22;14887;51.252;7.470;2023-04-01T03:20:09;6.50;99.90
27439;DHT22;14887;51.252;7.470;2023-04-01T03:22:36;6.50;99.90
27439;DHT22;14887;51.252;7.470;2023-04-01T03:25:03;6.60;99.90
27439;DHT22;14887;51.252;7.470;2023-04-01T03:27:29;6.50;99.90
27439;DHT22;14887;51.252;7.470;2023-04-01T03:29:55;6.60;99.90
27439;DHT22;14887;51.252;7.470;2023-04-01T03:32:21;6.60;99.90
27439;DHT22;14887;51.252;7.470;2023-04-01T03:34:46;6.60;99.90
27439;DHT22;14887;51.252;7.470;2023-04-01T03:37:12;6.60;99.90
27439;DHT22;14887;51.252;7.470;2023-04-01T03:39:38;6.60;99.90
27439;DHT22;14887;51.252;7.470;2023-04-01T03:42:03;6.60;99.90
27439;DHT22;14887;51.252;7.470;2023-04-01T03:44:33;6.50;99.90
27439;DHT22;14887;51.252;7.470;2023-04-01T03:46:59;6.60;99.90
27439;DHT22;14887;51.252;7.470;2023-04-01T03:49:25;6.50;99.90
27439;DHT22;14887;51.252;7.470;2023-04-01T03:51:51;6.50;99.90
27439;DHT22;14887;51.252;7.470;2023-04-01T03:54:17;6.50;99.90
27439;DHT22;14887;51.252;7.470;2023-04-01T03:56:45;6.50;99.90
27439;DHT22;14887;51.252;7.470;2023-04-01T03:59:11;6.50;99.90
27439;DHT22;14887;51.252;7.470;2023-04-01T04:01:37;6.50;99.90
27439;DHT22;14887;51.252;7.470;2023-04-01T04:04:03;6.50;99.90
27439;DHT22;14887;51.252;7.470;2023-04-01T04:06:28;6.50;99.90
27439;DHT22;14887;51.252;7.470;2023-04-01T04:08:54;6.50;99.90
27439;DHT22;14887;51.252;7.470;2023-04-01T04:11:20;6.50;99.90
27439;DHT22;14887;51.252;7.470;2023-04-01T04:13:46;6.50;99.90
27439;DHT22;14887;51.252;7.470;2023-04-01T04:16:13;6.50;99.90
27439;DHT22;14887;51.252;7.470;2023-04-01T04:18:39;6.50;99.90
27439;DHT22;14887;51.252;7.470;2023-04-01T04:21:05;6.50;99.90
27439;DHT22;14887;51.252;7.470;2023-04-01T04:23:30;6.50;99.90
27439;DHT22;14887;51.252;7.470;2023-04-01T04:26:07;6.50;99.90
27439;DHT22;14887;51.252;7.470;2023-04-01T04:28:32;6.50;99.90
27439;DHT22;14887;51.252;7.470;2023-04-01T04:30:59;6.50;99.90
27439;DHT22;14887;51.252;7.470;2023-04-01T04:33:25;6.50;99.90
27439;DHT22;14887;51.252;7.470;2023-04-01T04:35:51;6.50;99.90
27439;DHT22;14887;51.252;7.470;2023-04-01T04:38:17;6.50;99.90
27439;DHT22;14887;51.252;7.470;2023-04-01T04:40:43;6.40;99.90
27439;DHT22;14887;51.252;7.470;2023-04-01T04:43:13;6.60;99.90
27439;DHT22;14887;51.252;7.470;2023-04-01T04:45:39;6.60;99.90
27439;DHT22;14887;51.252;7.470;2023-04-01T04:48:06;6.50;99.90
27439;DHT22;14887;51.252;7.470;2023-04-01T04:50:32;6.60;99.90
27439;DHT22;14887;51.252;7.470;2023-04-01T04:52:58;6.60;99.90
27439;DHT22;14887;51.252;7.470;2023-04-01T04:55:23;6.60;99.90
27439;DHT22;14887;51.252;7.470;2023-04-01T04:57:49;6.60;99.90
27439;DHT22;14887;51.252;7.470;2023-04-01T05:00:15;6.60;99.90
27439;DHT22;14887;51.252;7.470;2023-04-01T05:02:41;6.60;99.90
27439;DHT22;14887;51.252;7.470;2023-04-01T05:05:07;6.60;99.90
27439;DHT22;14887;51.252;7.470;2023-04-01T05:07:33;6.60;99.90
27439;DHT22;14887;51.252;7.470;2023-04-01T05:09:59;6.60;99.90
27439;DHT22;14887;51.252;7.470;2023-04-01T05:12:24;6.60;99.90
27439;DHT22;14887;51.252;7.470;2023-04-01T05:14:50;6.60;99.90
27439;DHT22;14887;51.252;7.470;2023-04-01T05:17:15;6.60;99.90
27439;DHT22;14887;51.252;7.470;2023-04-01T05:19:41;6.60;99.90
27439;DHT22;14887;51.252;7.470;2023-04-01T05:22:07;6.60;99.90
27439;DHT22;14887;51.252;7.470;2023-04-01T05:24:33;6.60;99.90
27439;DHT22;14887;51.252;7.470;2023-04-01T05:26:59;6.60;99.90
27439;DHT22;14887;51.252;7.470;2023-04-01T05:29:25;6.60;99.90
27439;DHT22;14887;51.252;7.470;2023-04-01T05:31:51;6.60;99.90
27439;DHT22;14887;51.252;7.470;2023-04-01T05:34:17;6.60;99.90
27439;DHT22;14887;51.252;7.470;2023-04-01T05:36:43;6.60;99.90
27439;DHT22;14887;51.252;7.470;2023-04-01T05:39:09;6.60;99.90
27439;DHT22;14887;51.252;7.470;2023-04-01T05:41:36;6.60;99.90
27439;DHT22;14887;51.252;7.470;2023-04-01T05:44:02;6.60;99.90
27439;DHT22;14887;51.252;7.470;2023-04-01T05:46:28;6.60;99.90
27439;DHT22;14887;51.252;7.470;2023-04-01T05:48:53;6.70;99.90
27439;DHT22;14887;51.252;7.470;2023-04-01T05:51:19;6.70;99.90
27439;DHT22;14887;51.252;7.470;2023-04-01T05:53:44;6.70;99.90
27439;DHT22;14887;51.252;7.470;2023-04-01T05:56:10;6.70;99.90
27439;DHT22;14887;51.252;7.470;2023-04-01T05:58:37;6.70;99.90
27439;DHT22;14887;51.252;7.470;2023-04-01T06:01:04;6.70;99.90
27439;DHT22;14887;51.252;7.470;2023-04-01T06:03:30;6.70;99.90
27439;DHT22;14887;51.252;7.470;2023-04-01T06:05:56;6.80;99.90
27439;DHT22;14887;51.252;7.470;2023-04-01T06:08:21;6.80;99.90
27439;DHT22;14887;51.252;7.470;2023-04-01T06:14:05;6.90;99.90
27439;DHT22;14887;51.252;7.470;2023-04-01T06:17:02;6.90;99.90
27439;DHT22;14887;51.252;7.470;2023-04-01T06:33:58;7.00;99.90
27439;DHT22;14887;51.252;7.470;2023-04-01T06:44:44;7.00;99.90
27439;DHT22;14887;51.252;7.470;2023-04-01T06:47:34;7.00;99.90
27439;DHT22;14887;51.252;7.470;2023-04-01T06:50:26;7.00;99.90
27439;DHT22;14887;51.252;7.470;2023-04-01T06:55:44;7.10;99.90
27439;DHT22;14887;51.252;7.470;2023-04-01T06:58:22;7.10;99.90
27439;DHT22;14887;51.252;7.470;2023-04-01T07:00:51;7.10;99.90
27439;DHT22;14887;51.252;7.470;2023-04-01T07:03:23;7.10;99.90
27439;DHT22;14887;51.252;7.470;2023-04-01T07:05:52;7.10;99.90
27439;DHT22;14887;51.252;7.470;2023-04-01T07:08:25;7.10;99.90
27439;DHT22;14887;51.252;7.470;2023-04-01T07:11:09;7.10;99.90
27439;DHT22;14887;51.252;7.470;2023-04-01T07:13:46;7.10;99.90
27439;DHT22;14887;51.252;7.470;2023-04-01T07:19:29;7.20;99.90
27439;DHT22;14887;51.252;7.470;2023-04-01T07:21:49;7.20;99.90
27439;DHT22;14887;51.252;7.470;2023-04-01T07:24:33;7.30;99.90
27439;DHT22;14887;51.252;7.470;2023-04-01T07:26:59;7.20;99.90
27439;DHT22;14887;51.252;7.470;2023-04-01T07:29:26;7.30;99.90
27439;DHT22;14887;51.252;7.470;2023-04-01T07:32:17;7.30;99.90
27439;DHT22;14887;51.252;7.470;2023-04-01T07:35:37;7.30;99.90
27439;DHT22;14887;51.252;7.470;2023-04-01T07:45:39;7.40;99.90
27439;DHT22;14887;51.252;7.470;2023-04-01T07:48:31;7.30;99.90
27439;DHT22;14887;51.252;7.470;2023-04-01T07:51:02;7.20;99.90
27439;DHT22;14887;51.252;7.470;2023-04-01T07:54:07;7.20;99.90
27439;DHT22;14887;51.252;7.470;2023-04-01T07:59:58;7.20;99.90
27439;DHT22;14887;51.252;7.470;2023-04-01T08:08:35;7.30;99.90
27439;DHT22;14887;51.252;7.470;2023-04-01T08:11:15;7.40;99.90
27439;DHT22;14887;51.252;7.470;2023-04-01T08:16:41;7.40;99.90
27439;DHT22;14887;51.252;7.470;2023-04-01T08:19:43;7.50;99.90
27439;DHT22;14887;51.252;7.470;2023-04-01T08:22:22;7.50;99.90
27439;DHT22;14887;51.252;7.470;2023-04-01T08:24:51;7.60;99.90
27439;DHT22;14887;51.252;7.470;2023-04-01T08:27:34;7.50;99.90
27439;DHT22;14887;51.252;7.470;2023-04-01T08:30:06;7.50;99.90
27439;DHT22;14887;51.252;7.470;2023-04-01T08:32:43;7.50;99.90
27439;DHT22;14887;51.252;7.470;2023-04-01T08:37:56;7.50;99.90
27439;DHT22;14887;51.252;7.470;2023-04-01T08:49:02;7.50;99.90
27439;DHT22;14887;51.252;7.470;2023-04-01T08:57:45;7.50;99.90
27439;DHT22;14887;51.252;7.470;2023-04-01T09:11:30;7.60;99.90
27439;DHT22;14887;51.252;7.470;2023-04-01T09:17:13;7.60;99.90
27439;DHT22;14887;51.252;7.470;2023-04-01T09:22:40;7.60;99.90
27439;DHT22;14887;51.252;7.470;2023-04-01T09:25:44;7.70;99.90
27439;DHT22;14887;51.252;7.470;2023-04-01T09:31:12;7.70;99.90
27439;DHT22;14887;51.252;7.470;2023-04-01T09:36:47;7.80;99.90
27439;DHT22;14887;51.252;7.470;2023-04-01T09:39:38;7.90;99.90
27439;DHT22;14887;51.252;7.470;2023-04-01T09:42:15;7.90;99.90
27439;DHT22;14887;51.252;7.470;2023-04-01T09:45:04;7.90;99.90
27439;DHT22;14887;51.252;7.470;2023-04-01T09:50:30;7.80;99.90
27439;DHT22;14887;51.252;7.470;2023-04-01T10:06:57;7.80;99.90
27439;DHT22;14887;51.252;7.470;2023-04-01T10:21:33;8.10;99.90
27439;DHT22;14887;51.252;7.470;2023-04-01T10:27:10;8.10;99.90
27439;DHT22;14887;51.252;7.470;2023-04-01T10:38:19;8.00;99.90
27439;DHT22;14887;51.252;7.470;2023-04-01T10:54:55;8.20;99.90
27439;DHT22;14887;51.252;7.470;2023-04-01T11:03:35;8.20;99.90
27439;DHT22;14887;51.252;7.470;2023-04-01T11:09:30;8.30;99.90
27439;DHT22;14887;51.252;7.470;2023-04-01T11:12:16;8.30;99.90
27439;DHT22;14887;51.252;7.470;2023-04-01T11:18:08;8.40;99.90
27439;DHT22;14887;51.252;7.470;2023-04-01T11:21:03;8.30;99.90
27439;DHT22;14887;51.252;7.470;2023-04-01T11:23:56;8.30;99.90
27439;DHT22;14887;51.252;7.470;2023-04-01T11:26:50;8.30;99.90
27439;DHT22;14887;51.252;7.470;2023-04-01T11:29:39;8.10;99.90
27439;DHT22;14887;51.252;7.470;2023-04-01T11:32:31;8.10;99.90
27439;DHT22;14887;51.252;7.470;2023-04-01T11:35:17;8.30;99.90
27439;DHT22;14887;51.252;7.470;2023-04-01T11:40:44;8.50;99.90
27439;DHT22;14887;51.252;7.470;2023-04-01T11:43:18;8.60;99.90
27439;DHT22;14887;51.252;7.470;2023-04-01T11:48:44;8.30;99.90
27439;DHT22;14887;51.252;7.470;2023-04-01T11:51:51;8.30;99.90
27439;DHT22;14887;51.252;7.470;2023-04-01T11:54:46;8.30;99.90
27439;DHT22;14887;51.252;7.470;2023-04-01T12:11:23;8.20;99.90
27439;DHT22;14887;51.252;7.470;2023-04-01T12:41:08;8.10;99.90
27439;DHT22;14887;51.252;7.470;2023-04-01T12:51:45;8.10;99.90
27439;DHT22;14887;51.252;7.470;2023-04-01T12:59:41;8.20;99.90
27439;DHT22;14887;51.252;7.470;2023-04-01T13:08:18;8.20;99.90
27439;DHT22;14887;51.252;7.470;2023-04-01T13:13:56;8.20;99.90
27439;DHT22;14887;51.252;7.470;2023-04-01T13:16:58;8.20;99.90
27439;DHT22;14887;51.252;7.470;2023-04-01T13:22:22;8.20;99.90
27439;DHT22;14887;51.252;7.470;2023-04-01T13:25:10;8.20;99.90
27439;DHT22;14887;51.252;7.470;2023-04-01T13:27:44;8.10;99.90
27439;DHT22;14887;51.252;7.470;2023-04-01T13:33:13;8.30;99.90
27439;DHT22;14887;51.252;7.470;2023-04-01T13:35:48;8.20;99.90
27439;DHT22;14887;51.252;7.470;2023-04-01T13:43:48;8.40;99.90
27439;DHT22;14887;51.252;7.470;2023-04-01T13:52:11;8.30;99.90
27439;DHT22;14887;51.252;7.470;2023-04-01T13:54:47;8.20;99.90
27439;DHT22;14887;51.252;7.470;2023-04-01T14:23:07;8.50;99.90
27439;DHT22;14887;51.252;7.470;2023-04-01T14:31:18;8.30;99.90
27439;DHT22;14887;51.252;7.470;2023-04-01T14:36:50;8.30;99.90
27439;DHT22;14887;51.252;7.470;2023-04-01T14:45:23;8.20;99.90
27439;DHT22;14887;51.252;7.470;2023-04-01T14:48:15;8.20;99.90
27439;DHT22;14887;51.252;7.470;2023-04-01T14:50:57;8.20;99.90
27439;DHT22;14887;51.252;7.470;2023-04-01T14:53:29;8.20;99.90
27439;DHT22;14887;51.252;7.470;2023-04-01T14:55:58;8.20;99.90
27439;DHT22;14887;51.252;7.470;2023-04-01T14:58:39;8.20;99.90
27439;DHT22;14887;51.252;7.470;2023-04-01T15:03:48;8.10;99.90
27439;DHT22;14887;51.252;7.470;2023-04-01T15:09:06;8.10;99.90
27439;DHT22;14887;51.252;7.470;2023-04-01T15:14:27;8.10;99.90
27439;DHT22;14887;51.252;7.470;2023-04-01T15:25:54;8.10;99.90
27439;DHT22;14887;51.252;7.470;2023-04-01T15:28:33;8.00;99.90
27439;DHT22;14887;51.252;7.470;2023-04-01T15:39:38;8.00;99.90
27439;DHT22;14887;51.252;7.470;2023-04-01T15:51:28;8.00;99.90
27439;DHT22;14887;51.252;7.470;2023-04-01T15:54:23;8.00;99.90
27439;DHT22;14887;51.252;7.470;2023-04-01T15:57:28;7.90;99.90
27439;DHT22;14887;51.252;7.470;2023-04-01T16:00:04;7.90;99.90
27439;DHT22;14887;51.252;7.470;2023-04-01T16:03:01;7.90;99.90
27439;DHT22;14887;51.252;7.470;2023-04-01T16:05:54;7.90;99.90
27439;DHT22;14887;51.252;7.470;2023-04-01T16:24:43;7.90;99.90
27439;DHT22;14887;51.252;7.470;2023-04-01T16:27:58;7.90;99.90
27439;DHT22;14887;51.252;7.470;2023-04-01T16:30:37;7.90;99.90
27439;DHT22;14887;51.252;7.470;2023-04-01T16:35:59;7.90;99.90
27439;DHT22;14887;51.252;7.470;2023-04-01T16:38:43;7.90;99.90
27439;DHT22;14887;51.252;7.470;2023-04-01T16:41:32;7.90;99.90
27439;DHT22;14887;51.252;7.470;2023-04-01T16:44:20;7.90;99.90
27439;DHT22;14887;51.252;7.470;2023-04-01T16:46:52;7.80;99.90
27439;DHT22;14887;51.252;7.470;2023-04-01T16:49:50;7.90;99.90
27439;DHT22;14887;51.252;7.470;2023-04-01T16:52:40;7.90;99.90
27439;DHT22;14887;51.252;7.470;2023-04-01T16:55:19;7.90;99.90
27439;DHT22;14887;51.252;7.470;2023-04-01T16:57:56;7.80;99.90
27439;DHT22;14887;51.252;7.470;2023-04-01T17:00:27;7.80;99.90
27439;DHT22;14887;51.252;7.470;2023-04-01T17:05:42;7.80;99.90
27439;DHT22;14887;51.252;7.470;2023-04-01T17:08:22;7.80;99.90
27439;DHT22;14887;51.252;7.470;2023-04-01T17:11:39;7.80;99.90
27439;DHT22;14887;51.252;7.470;2023-04-01T17:13:47;7.80;99.90
27439;DHT22;14887;51.252;7.470;2023-04-01T17:16:34;7.70;99.90
27439;DHT22;14887;51.252;7.470;2023-04-01T17:24:53;7.70;99.90
27439;DHT22;14887;51.252;7.470;2023-04-01T17:27:33;7.70;99.90
27439;DHT22;14887;51.252;7.470;2023-04-01T17:41:29;7.70;99.90
27439;DHT22;14887;51.252;7.470;2023-04-01T17:52:44;7.70;99.90
27439;DHT22;14887;51.252;7.470;2023-04-01T17:57:45;7.70;99.90
27439;DHT22;14887;51.252;7.470;2023-04-01T18:06:03;7.70;99.90
27439;DHT22;14887;51.252;7.470;2023-04-01T18:08:58;7.70;99.90
27439;DHT22;14887;51.252;7.470;2023-04-01T18:11:30;7.70;99.90
27439;DHT22;14887;51.252;7.470;2023-04-01T18:17:00;7.60;99.90
27439;DHT22;14887;51.252;7.470;2023-04-01T18:22:28;7.70;99.90
27439;DHT22;14887;51.252;7.470;2023-04-01T18:27:42;7.60;99.90
27439;DHT22;14887;51.252;7.470;2023-04-01T18:30:18;7.60;99.90
27439;DHT22;14887;51.252;7.470;2023-04-01T18:32:55;7.60;99.90
27439;DHT22;14887;51.252;7.470;2023-04-01T18:35:50;7.60;99.90
27439;DHT22;14887;51.252;7.470;2023-04-01T18:38:28;7.60;99.90
27439;DHT22;14887;51.252;7.470;2023-04-01T18:46:40;7.60;99.90
27439;DHT22;14887;51.252;7.470;2023-04-01T18:51:58;7.60;99.90
27439;DHT22;14887;51.252;7.470;2023-04-01T18:54:31;7.50;99.90
27439;DHT22;14887;51.252;7.470;2023-04-01T18:57:18;7.60;99.90
27439;DHT22;14887;51.252;7.470;2023-04-01T18:59:53;7.70;99.90
27439;DHT22;14887;51.252;7.470;2023-04-01T19:05:29;7.50;99.90
27439;DHT22;14887;51.252;7.470;2023-04-01T19:07:56;7.50;99.90
27439;DHT22;14887;51.252;7.470;2023-04-01T19:10:54;7.50;99.90
27439;DHT22;14887;51.252;7.470;2023-04-01T19:17:00;7.50;99.90
27439;DHT22;14887;51.252;7.470;2023-04-01T19:25:15;7.50;99.90
27439;DHT22;14887;51.252;7.470;2023-04-01T19:27:59;7.50;99.90
27439;DHT22;14887;51.252;7.470;2023-04-01T19:36:27;7.50;99.90
27439;DHT22;14887;51.252;7.470;2023-04-01T19:49:57;7.50;99.90
27439;DHT22;14887;51.252;7.470;2023-04-01T19:55:11;7.50;99.90
27439;DHT22;14887;51.252;7.470;2023-04-01T20:00:27;7.50;99.90
27439;DHT22;14887;51.252;7.470;2023-04-01T20:06:19;7.60;99.90
27439;DHT22;14887;51.252;7.470;2023-04-01T20:09:08;7.50;99.90
27439;DHT22;14887;51.252;7.470;2023-04-01T20:11:53;7.50;99.90
27439;DHT22;14887;51.252;7.470;2023-04-01T20:14:32;7.50;99.90
27439;DHT22;14887;51.252;7.470;2023-04-01T20:25:25;7.50;99.90
27439;DHT22;14887;51.252;7.470;2023-04-01T20:33:28;7.50;99.90
27439;DHT22;14887;51.252;7.470;2023-04-01T20:36:20;7.50;99.90
27439;DHT22;14887;51.252;7.470;2023-04-01T20:39:19;7.40;99.90
27439;DHT22;14887;51.252;7.470;2023-04-01T20:50:28;7.40;99.90
27439;DHT22;14887;51.252;7.470;2023-04-01T20:56:13;7.50;99.90
27439;DHT22;14887;51.252;7.470;2023-04-01T21:01:34;7.40;99.90
27439;DHT22;14887;51.252;7.470;2023-04-01T21:04:22;7.40;99.90
27439;DHT22;14887;51.252;7.470;2023-04-01T21:07:15;7.30;99.90
27439;DHT22;14887;51.252;7.470;2023-04-01T21:19:01;7.30;99.90
27439;DHT22;14887;51.252;7.470;2023-04-01T21:24:43;7.30;99.90
27439;DHT22;14887;51.252;7.470;2023-04-01T21:35:27;7.30;99.90
27439;DHT22;14887;51.252;7.470;2023-04-01T21:41:00;7.30;99.90
27439;DHT22;14887;51.252;7.470;2023-04-01T21:52:40;7.40;99.90
27439;DHT22;14887;51.252;7.470;2023-04-01T22:04:27;7.30;99.90
27439;DHT22;14887;51.252;7.470;2023-04-01T22:09:23;7.40;99.90
27439;DHT22;14887;51.252;7.470;2023-04-01T22:11:52;7.30;99.90
27439;DHT22;14887;51.252;7.470;2023-04-01T22:14:50;7.30;99.90
27439;DHT22;14887;51.252;7.470;2023-04-01T22:17:38;7.30;99.90
27439;DHT22;14887;51.252;7.470;2023-04-01T22:25:45;7.30;99.90
27439;DHT22;14887;51.252;7.470;2023-04-01T22:31:03;7.40;99.90
27439;DHT22;14887;51.252;7.470;2023-04-01T22:39:00;7.30;99.90
27439;DHT22;14887;51.252;7.470;2023-04-01T22:41:48;7.30;99.90
27439;DHT22;14887;51.252;7.470;2023-04-01T22:50:05;7.40;99.90
27439;DHT22;14887;51.252;7.470;2023-04-01T22:52:44;7.40;99.90
27439;DHT22;14887;51.252;7.470;2023-04-01T22:55:24;7.40;99.90
27439;DHT22;14887;51.252;7.470;2023-04-01T23:00:30;7.40;99.90
27439;DHT22;14887;51.252;7.470;2023-04-01T23:05:55;7.50;99.90
27439;DHT22;14887;51.252;7.470;2023-04-01T23:11:23;7.30;99.90
27439;DHT22;14887;51.252;7.470;2023-04-01T23:17:07;7.20;99.90
27439;DHT22;14887;51.252;7.470;2023-04-01T23:19:52;7.10;99.90
27439;DHT22;14887;51.252;7.470;2023-04-01T23:22:34;7.00;99.90
27439;DHT22;14887;51.252;7.470;2023-04-01T23:27:53;6.90;99.90
27439;DHT22;14887;51.252;7.470;2023-04-01T23:33:26;6.80;99.90
27439;DHT22;14887;51.252;7.470;2023-04-01T23:36:13;6.80;99.90
27439;DHT22;14887;51.252;7.470;2023-04-01T23:38:41;6.70;99.90
27439;DHT22;14887;51.252;7.470;2023-04-01T23:41:16;6.70;99.90
27439;DHT22;14887;51.252;7.470;2023-04-01T23:43:44;6.60;99.90
27439;DHT22;14887;51.252;7.470;2023-04-01T23:46:12;6.60;99.90
27439;DHT22;14887;51.252;7.470;2023-04-01T23:48:41;6.60;99.90
27439;DHT22;14887;51.252;7.470;2023-04-01T23:51:23;6.50;99.90
27439;DHT22;14887;51.252;7.470;2023-04-01T23:54:03;6.50;99.90
27439;DHT22;14887;51.252;7.470;2023-04-01T23:56:39;6.40;99.90
27439;DHT22;14887;51.252;7.470;2023-04-01T23:59:16;6.30;99.90
